Terminal Aerodrome Forecast
Issued by NWS

Home | Current Version | Previous Version | Text Only | Print | Product List | Glossary Off
Versions: 1 2 3 4 5 6 7 8 9 10 11 12 13 14 15 16 17 18 19 20 21 22 23 24 25

000
FTUS43 KICT 210520
TAFCNU
TAF
KCNU 210520Z 2106/2206 35011KT P6SM SCT010 BKN035
      TEMPO 2106/2110 5SM BR SCT007 BKN010
     FM211000 01004KT 4SM BR SCT015 BKN025
     FM211700 04007KT P6SM FEW025 SCT050=

USA.gov is the U.S. government's official web portal to all federal, state and local government web resources and services.